createdAt,value
2019-03-23T00:01:48.570Z,94.83
2019-03-23T00:06:57.151Z,96.24
2019-03-23T00:12:05.535Z,91.44
2019-03-23T00:17:13.791Z,97.48
2019-03-23T00:22:22.288Z,93.03
2019-03-23T00:27:30.447Z,96.52
2019-03-23T00:32:39.118Z,93.76
2019-03-23T00:37:47.426Z,95.00
2019-03-23T00:42:55.812Z,93.82
2019-03-23T00:48:03.960Z,97.79
2019-03-23T00:53:12.735Z,97.09
2019-03-23T00:58:20.976Z,95.16
2019-03-23T01:03:29.401Z,87.63
2019-03-23T01:08:37.792Z,91.37
2019-03-23T01:13:46.270Z,90.35
2019-03-23T01:18:54.666Z,87.68
2019-03-23T01:24:03.053Z,84.67
2019-03-23T01:29:11.242Z,83.21
2019-03-23T01:34:19.778Z,81.56
2019-03-23T01:39:28.038Z,82.42
2019-03-23T01:44:36.557Z,77.59
2019-03-23T01:49:44.726Z,69.52
2019-03-23T01:54:53.202Z,70.70
2019-03-23T02:00:01.603Z,70.78
2019-03-23T02:05:10.198Z,65.68
2019-03-23T02:10:18.364Z,63.12
2019-03-23T02:15:27.236Z,58.48
2019-03-23T02:20:35.774Z,59.07
2019-03-23T02:25:44.464Z,54.00
2019-03-23T02:30:52.810Z,55.67
2019-03-23T02:36:01.110Z,53.85
2019-03-23T02:41:09.287Z,52.95
2019-03-23T02:46:17.703Z,56.14
2019-03-23T02:51:25.926Z,56.10
2019-03-23T02:56:34.350Z,56.32
2019-03-23T03:01:42.825Z,62.52
2019-03-23T03:06:51.738Z,60.72
2019-03-23T03:11:59.910Z,60.75
2019-03-23T03:17:08.319Z,65.39
2019-03-23T03:22:16.623Z,65.71
2019-03-23T03:27:25.093Z,72.95
2019-03-23T03:32:33.342Z,73.96
2019-03-23T03:37:55.339Z,81.07
2019-03-23T03:42:49.663Z,84.39
2019-03-23T03:47:58.056Z,86.82
2019-03-23T03:53:06.401Z,93.34
2019-03-23T03:58:14.965Z,101.50
2019-03-23T04:03:23.198Z,99.17
2019-03-23T04:08:31.554Z,99.32
2019-03-23T04:13:39.830Z,92.83
2019-03-23T04:18:48.225Z,93.36
2019-03-23T04:23:56.558Z,101.65
2019-03-23T04:29:05.331Z,107.01
2019-03-23T04:34:13.679Z,102.47
2019-03-23T04:39:22.117Z,103.22
2019-03-23T04:44:30.834Z,100.08
2019-03-23T04:49:39.669Z,96.38
2019-03-23T04:54:47.917Z,100.27
2019-03-23T04:59:56.417Z,94.26
2019-03-23T05:05:05.381Z,101.10
2019-03-23T05:10:12.512Z,101.56
2019-03-23T05:15:21.218Z,99.58
2019-03-23T05:20:29.718Z,103.85
2019-03-23T05:25:38.477Z,97.41
2019-03-23T05:30:46.952Z,102.04
2019-03-23T05:35:55.519Z,96.42
2019-03-23T05:41:04.148Z,91.18
2019-03-23T05:46:12.231Z,101.84
2019-03-23T05:51:20.699Z,94.52
2019-03-23T05:56:28.855Z,88.85
2019-03-23T06:01:38.394Z,95.20
2019-03-23T06:06:46.646Z,97.32
2019-03-23T06:11:55.259Z,95.44
2019-03-23T06:17:03.656Z,94.67
2019-03-23T06:22:12.272Z,97.89
2019-03-23T06:27:20.455Z,101.63
2019-03-23T06:32:29.047Z,93.49
2019-03-23T06:37:37.259Z,89.33
2019-03-23T06:42:45.726Z,87.93
2019-03-23T06:47:54.166Z,90.27
2019-03-23T06:53:02.678Z,87.11
2019-03-23T06:58:11.387Z,86.67
2019-03-23T07:03:20.318Z,88.26
2019-03-23T07:08:32.231Z,88.48
2019-03-23T07:13:36.348Z,88.17
2019-03-23T07:18:44.662Z,88.66
2019-03-23T07:23:53.006Z,87.93
2019-03-23T07:29:01.344Z,84.89
2019-03-23T07:34:09.837Z,84.78
2019-03-23T07:39:26.712Z,85.21
2019-03-23T07:44:26.041Z,79.89
2019-03-23T07:49:34.503Z,80.09
2019-03-23T07:54:43.107Z,78.80
2019-03-23T07:59:51.464Z,79.14
2019-03-23T08:04:59.955Z,70.48
2019-03-23T08:10:08.424Z,70.15
2019-03-23T08:15:16.883Z,71.52
2019-03-23T08:20:25.226Z,72.61
2019-03-23T08:25:34.479Z,76.79
2019-03-23T08:30:34.453Z,79.63
2019-03-23T08:35:42.934Z,75.81
2019-03-23T08:40:51.174Z,74.98
2019-03-23T08:45:59.937Z,71.00
2019-03-23T08:51:08.273Z,74.15
2019-03-23T08:56:16.752Z,70.58
2019-03-23T09:01:25.325Z,71.11
2019-03-23T09:06:34.064Z,71.97
2019-03-23T09:11:42.310Z,72.25
2019-03-23T09:16:50.993Z,71.63
2019-03-23T09:21:59.349Z,73.06
2019-03-23T09:27:07.794Z,71.27
2019-03-23T09:32:15.982Z,70.30
2019-03-23T09:37:24.929Z,70.86
2019-03-23T09:42:33.555Z,70.43
2019-03-23T09:47:42.033Z,70.28
2019-03-23T09:52:50.301Z,69.99
2019-03-23T09:57:59.174Z,69.19
2019-03-23T10:03:07.509Z,73.75
2019-03-23T10:08:16.073Z,70.58
2019-03-23T10:13:24.373Z,72.77
2019-03-23T10:18:33.233Z,71.51
2019-03-23T10:23:41.467Z,72.41
2019-03-23T10:28:50.260Z,72.47
2019-03-23T10:33:58.592Z,70.14
2019-03-23T10:39:07.020Z,70.19
2019-03-23T10:44:15.196Z,71.72
2019-03-23T10:49:23.871Z,73.97
2019-03-23T10:54:32.528Z,71.00
2019-03-23T10:59:41.363Z,71.93
2019-03-23T11:04:49.666Z,70.51
2019-03-23T11:09:58.247Z,70.19
2019-03-23T11:15:06.517Z,71.04
2019-03-23T11:20:14.924Z,72.24
2019-03-23T11:25:23.255Z,73.55
2019-03-23T11:30:32.023Z,70.25
2019-03-23T11:35:40.461Z,68.58
2019-03-23T11:40:54.993Z,70.59
2019-03-23T11:45:56.695Z,65.62
2019-03-23T11:51:05.330Z,82.05
2019-03-23T11:56:13.849Z,67.85
2019-03-23T12:01:22.346Z,72.38
2019-03-23T12:06:30.850Z,63.87
2019-03-23T12:11:39.477Z,71.91
2019-03-23T12:16:48.071Z,71.08
2019-03-23T12:21:56.560Z,70.86
2019-03-23T12:27:05.051Z,71.84
2019-03-23T12:32:13.467Z,66.18
2019-03-23T12:37:21.797Z,71.76
2019-03-23T12:42:30.458Z,70.65
2019-03-23T12:47:38.821Z,64.63
2019-03-23T12:52:47.386Z,59.95
2019-03-23T12:57:55.735Z,55.94
2019-03-23T13:03:04.082Z,55.62
2019-03-23T13:08:13.126Z,52.57
2019-03-23T13:13:21.648Z,42.78
2019-03-23T13:18:32.589Z,41.41
2019-03-23T13:23:30.810Z,40.72
2019-03-23T13:28:39.385Z,37.72
2019-03-23T13:33:47.920Z,30.55
2019-03-23T13:38:56.167Z,28.27
2019-03-23T13:44:04.729Z,20.16
2019-03-23T13:49:13.125Z,19.41
2019-03-23T13:54:21.949Z,16.65
2019-03-23T13:59:30.259Z,15.40
2019-03-23T14:04:38.762Z,13.34
2019-03-23T14:09:47.260Z,9.09
2019-03-23T14:14:55.855Z,7.84
2019-03-23T14:20:04.327Z,9.25
2019-03-23T14:25:12.735Z,7.18
2019-03-23T14:30:21.175Z,8.62
2019-03-23T14:35:29.646Z,8.02
2019-03-23T14:40:37.925Z,6.56
2019-03-23T14:45:46.267Z,6.77
2019-03-23T14:50:54.606Z,8.59
2019-03-23T14:56:03.039Z,6.27
2019-03-23T15:01:11.174Z,7.55
2019-03-23T15:06:19.507Z,6.50
2019-03-23T15:11:27.756Z,9.89
2019-03-23T15:16:36.822Z,10.24
2019-03-23T15:21:45.133Z,10.62
2019-03-23T15:26:53.322Z,12.25
2019-03-23T15:32:01.613Z,33.05
2019-03-23T15:37:10.152Z,11.48
2019-03-23T15:42:24.652Z,10.24
2019-03-23T15:47:26.262Z,14.24
2019-03-23T15:52:34.510Z,14.72
2019-03-23T15:57:43.026Z,13.43
2019-03-23T16:02:51.336Z,11.17
2019-03-23T16:07:59.622Z,11.95
2019-03-23T16:13:07.970Z,12.54
2019-03-23T16:18:16.226Z,16.11
2019-03-23T16:23:24.985Z,14.28
2019-03-23T16:28:33.260Z,15.18
2019-03-23T16:33:41.538Z,15.89
2019-03-23T16:38:50.149Z,14.67
2019-03-23T16:43:56.808Z,16.08
2019-03-23T16:49:05.229Z,12.62
2019-03-23T16:54:13.478Z,12.83
2019-03-23T16:59:22.553Z,15.54
2019-03-23T17:04:30.813Z,15.18
2019-03-23T17:09:39.338Z,17.22
2019-03-23T17:14:47.658Z,18.25
2019-03-23T17:19:48.209Z,17.68
2019-03-23T17:24:48.814Z,19.93
2019-03-23T17:29:57.166Z,15.65
2019-03-23T17:35:05.400Z,16.12
2019-03-23T17:40:14.025Z,21.95
2019-03-23T17:45:22.322Z,21.43
2019-03-23T17:50:30.723Z,24.76
2019-03-23T17:55:38.930Z,15.64
2019-03-23T18:00:47.391Z,14.16
2019-03-23T18:05:55.607Z,18.61
2019-03-23T18:11:03.905Z,15.71
2019-03-23T18:16:12.183Z,18.00
2019-03-23T18:21:20.689Z,17.16
2019-03-23T18:26:28.935Z,15.95
2019-03-23T18:31:41.553Z,21.60
2019-03-23T18:36:40.904Z,17.29
2019-03-23T18:41:50.789Z,16.04
2019-03-23T18:46:59.605Z,20.72
2019-03-23T18:52:15.072Z,16.41
2019-03-23T18:57:13.833Z,20.82
2019-03-23T19:02:15.506Z,15.64
2019-03-23T19:07:25.733Z,18.89
2019-03-23T19:12:25.049Z,17.19
2019-03-23T19:17:33.680Z,20.68
2019-03-23T19:22:42.349Z,19.08
2019-03-23T19:27:50.726Z,17.25
2019-03-23T19:33:00.093Z,20.43
2019-03-23T19:38:08.238Z,19.39
2019-03-23T19:43:16.619Z,19.04
2019-03-23T19:48:24.836Z,22.20
2019-03-23T19:53:33.227Z,22.53
2019-03-23T19:58:41.449Z,21.17
2019-03-23T20:03:52.295Z,22.11
2019-03-23T20:08:50.559Z,20.49
2019-03-23T20:13:59.202Z,18.51
2019-03-23T20:19:06.592Z,26.93
2019-03-23T20:24:17.241Z,20.09
2019-03-23T20:29:15.489Z,21.03
2019-03-23T20:34:23.851Z,20.56
2019-03-23T20:39:32.499Z,24.34
2019-03-23T20:44:41.042Z,20.65
2019-03-23T20:49:49.602Z,24.45
2019-03-23T20:54:58.743Z,20.99
2019-03-23T21:00:07.862Z,22.47
2019-03-23T21:05:16.087Z,24.71
2019-03-23T21:10:24.553Z,24.92
2019-03-23T21:15:33.103Z,23.05
2019-03-23T21:20:41.218Z,25.68
2019-03-23T21:25:49.644Z,23.26
2019-03-23T21:30:57.872Z,18.81
2019-03-23T21:36:06.097Z,22.87
2019-03-23T21:41:14.266Z,22.79
2019-03-23T21:46:22.526Z,26.36
2019-03-23T21:51:31.771Z,24.93
2019-03-23T21:56:40.848Z,22.23
2019-03-23T22:01:49.193Z,22.82
2019-03-23T22:06:57.737Z,25.48
2019-03-23T22:11:59.163Z,23.76
2019-03-23T22:17:07.445Z,20.63
2019-03-23T22:22:15.550Z,23.44
2019-03-23T22:27:24.158Z,23.47
2019-03-23T22:32:32.409Z,21.79
2019-03-23T22:37:40.777Z,20.07
2019-03-23T22:42:49.653Z,24.21
2019-03-23T22:47:58.191Z,23.81
2019-03-23T22:53:06.377Z,22.22
2019-03-23T22:58:14.766Z,22.32
2019-03-23T23:03:22.973Z,21.61
2019-03-23T23:08:31.305Z,24.90
2019-03-23T23:13:39.450Z,24.93
2019-03-23T23:18:46.448Z,23.40
2019-03-23T23:23:54.590Z,22.61
2019-03-23T23:29:03.055Z,25.85
2019-03-23T23:34:11.359Z,21.09
2019-03-23T23:39:19.961Z,23.24
2019-03-23T23:44:28.135Z,24.43
2019-03-23T23:49:36.509Z,21.70
2019-03-23T23:54:43.176Z,21.16
2019-03-23T23:59:52.215Z,26.72
